Time;durP1;ratioP1;P1;durP2;ratioP2;P2;SDS_P1;SDS_P2;PMS_P1;PMS_P2;Temp;Humidity;BMP_temperature;BMP_pressure;BME280_temperature;BME280_humidity;BME280_pressure;Samples;Min_cycle;Max_cycle;Signal;HPM_P1;HPM_P2
2023/06/29 00:00:21;;;;;;;17.25;14.68;;;;;;;;;;4993440;28;20030;-81
2023/06/29 00:02:50;;;;;;;14.23;12.93;;;;;;;;;;4993911;28;20534;-82
2023/06/29 00:05:18;;;;;;;15.07;13.55;;;;;;;;;;4994108;28;20547;-81
2023/06/29 00:07:44;;;;;;;16.88;14.50;;;;;;;;;;5001510;28;20090;-80
2023/06/29 00:10:10;;;;;;;11.27;10.38;;;;;;;;;;5006399;28;20460;-81
2023/06/29 00:12:36;;;;;;;13.88;12.48;;;;;;;;;;4992456;28;20042;-79
2023/06/29 00:15:03;;;;;;;13.07;11.85;;;;;;;;;;4994527;28;20093;-80
2023/06/29 00:17:31;;;;;;;13.68;12.27;;;;;;;;;;4993824;28;20093;-81
2023/06/29 00:20:00;;;;;;;12.95;11.57;;;;;;;;;;4993124;28;20042;-82
2023/06/29 00:22:26;;;;;;;13.07;11.77;;;;;;;;;;4994404;28;20045;-82
2023/06/29 00:24:56;;;;;;;12.25;11.05;;;;;;;;;;4994953;28;20517;-82
2023/06/29 00:27:22;;;;;;;12.00;11.00;;;;;;;;;;4996331;28;20109;-82
2023/06/29 00:29:50;;;;;;;12.52;11.43;;;;;;;;;;4999369;28;20035;-80
2023/06/29 00:32:16;;;;;;;13.07;11.98;;;;;;;;;;4998426;28;20039;-78
2023/06/29 00:34:44;;;;;;;12.68;11.38;;;;;;;;;;4992422;28;20532;-82
2023/06/29 00:37:11;;;;;;;11.55;10.27;;;;;;;;;;4994461;28;20173;-79
2023/06/29 00:39:38;;;;;;;12.23;11.18;;;;;;;;;;4991452;28;20049;-79
2023/06/29 00:42:05;;;;;;;12.82;11.68;;;;;;;;;;4992618;28;20034;-80
2023/06/29 00:44:31;;;;;;;12.98;11.77;;;;;;;;;;4993868;28;20042;-81
2023/06/29 00:46:57;;;;;;;14.43;12.77;;;;;;;;;;4996969;28;20046;-80
2023/06/29 00:49:23;;;;;;;13.75;12.38;;;;;;;;;;4974971;28;20038;-78
2023/06/29 00:51:50;;;;;;;13.13;11.57;;;;;;;;;;4993666;28;20045;-81
2023/06/29 00:54:16;;;;;;;15.88;12.80;;;;;;;;;;4993660;28;20101;-81
2023/06/29 00:56:42;;;;;;;21.63;14.57;;;;;;;;;;4994099;28;20038;-83
2023/06/29 00:59:08;;;;;;;16.05;13.95;;;;;;;;;;4998041;28;20034;-82
2023/06/29 01:01:34;;;;;;;16.90;14.05;;;;;;;;;;4992593;28;20117;-78
2023/06/29 01:04:00;;;;;;;17.98;14.40;;;;;;;;;;4974280;28;20132;-81
2023/06/29 01:06:29;;;;;;;17.17;13.73;;;;;;;;;;4994666;28;20072;-81
2023/06/29 01:08:56;;;;;;;17.10;13.85;;;;;;;;;;4996473;28;20042;-83
2023/06/29 01:11:22;;;;;;;17.13;13.13;;;;;;;;;;5003625;28;20052;-83
2023/06/29 01:13:48;;;;;;;15.82;13.35;;;;;;;;;;5002879;28;20189;-81
2023/06/29 01:16:17;;;;;;;13.98;12.52;;;;;;;;;;4993853;28;20176;-82
2023/06/29 01:18:43;;;;;;;16.73;13.45;;;;;;;;;;4994373;28;20034;-81
2023/06/29 01:21:09;;;;;;;15.15;13.32;;;;;;;;;;4993086;28;20401;-82
2023/06/29 01:23:36;;;;;;;14.77;13.27;;;;;;;;;;4994517;28;20038;-82
2023/06/29 01:26:05;;;;;;;13.65;12.43;;;;;;;;;;4996521;28;20048;-82
2023/06/29 01:28:33;;;;;;;15.10;13.65;;;;;;;;;;4995703;28;20030;-81
2023/06/29 01:31:02;;;;;;;17.50;14.18;;;;;;;;;;4996325;28;20114;-81
2023/06/29 01:33:28;;;;;;;14.73;13.23;;;;;;;;;;4996672;28;20566;-82
2023/06/29 01:35:57;;;;;;;14.70;13.35;;;;;;;;;;4998088;28;20049;-79
2023/06/29 01:38:24;;;;;;;16.52;13.65;;;;;;;;;;4980024;28;20046;-81
2023/06/29 01:40:50;;;;;;;19.55;14.43;;;;;;;;;;4981796;28;20069;-81
2023/06/29 01:43:17;;;;;;;16.25;14.45;;;;;;;;;;4999010;28;20049;-82
2023/06/29 01:45:43;;;;;;;19.48;15.43;;;;;;;;;;4998853;28;20053;-82
2023/06/29 01:48:09;;;;;;;18.05;15.55;;;;;;;;;;4998405;28;20034;-83
2023/06/29 01:50:35;;;;;;;17.70;15.57;;;;;;;;;;5000101;28;20117;-82
2023/06/29 01:53:03;;;;;;;19.92;15.85;;;;;;;;;;5001217;28;20409;-82
2023/06/29 01:55:29;;;;;;;17.52;15.65;;;;;;;;;;5001753;28;20038;-82
2023/06/29 01:57:55;;;;;;;18.08;15.98;;;;;;;;;;5002772;28;20049;-81
2023/06/29 02:00:22;;;;;;;23.42;19.35;;;;;;;;;;5013079;28;20057;-83
2023/06/29 02:02:51;;;;;;;23.03;19.50;;;;;;;;;;5000430;28;20041;-81
2023/06/29 02:05:19;;;;;;;26.27;18.52;;;;;;;;;;4994366;28;20305;-82
2023/06/29 02:07:45;;;;;;;17.52;15.45;;;;;;;;;;4990793;28;20045;-81
2023/06/29 02:10:13;;;;;;;19.90;17.00;;;;;;;;;;4991681;28;20030;-82
2023/06/29 02:12:40;;;;;;;19.70;17.45;;;;;;;;;;4990852;28;20034;-82
2023/06/29 02:15:07;;;;;;;17.10;15.30;;;;;;;;;;4989947;28;20121;-80
2023/06/29 02:17:33;;;;;;;17.35;15.68;;;;;;;;;;4991321;28;20034;-80
2023/06/29 02:20:19;;;;;;;13.65;12.35;;;;;;;;;;4990462;28;20528;-81
2023/06/29 02:22:44;;;;;;;15.30;13.98;;;;;;;;;;4991239;28;20121;-80
2023/06/29 02:25:13;;;;;;;12.90;11.73;;;;;;;;;;4974376;28;20050;-79
2023/06/29 02:27:39;;;;;;;12.38;11.20;;;;;;;;;;4990933;28;20117;-78
2023/06/29 02:30:05;;;;;;;11.10;10.10;;;;;;;;;;4991230;28;20038;-80
2023/06/29 02:32:31;;;;;;;10.43;9.43;;;;;;;;;;4974160;28;20047;-79
2023/06/29 02:34:57;;;;;;;9.57;8.77;;;;;;;;;;4989896;28;20050;-80
2023/06/29 02:37:24;;;;;;;10.82;9.77;;;;;;;;;;4990361;28;20077;-80
2023/06/29 02:39:50;;;;;;;9.63;8.73;;;;;;;;;;4991947;28;20088;-82
2023/06/29 02:42:16;;;;;;;9.90;8.65;;;;;;;;;;4992893;28;20035;-80
2023/06/29 02:44:42;;;;;;;8.93;8.13;;;;;;;;;;4990095;28;20050;-81
2023/06/29 02:47:08;;;;;;;9.70;9.00;;;;;;;;;;4990436;28;20031;-80
2023/06/29 02:49:34;;;;;;;10.25;9.30;;;;;;;;;;4994126;28;20044;-79
2023/06/29 02:52:01;;;;;;;9.32;8.43;;;;;;;;;;5002884;28;20563;-81
2023/06/29 02:54:27;;;;;;;9.05;8.35;;;;;;;;;;5001524;28;20050;-81
2023/06/29 02:56:53;;;;;;;8.02;7.38;;;;;;;;;;4990567;28;20041;-80
2023/06/29 02:59:20;;;;;;;8.73;7.95;;;;;;;;;;4989729;28;20034;-80
2023/06/29 03:01:46;;;;;;;7.53;6.85;;;;;;;;;;4990506;28;20035;-80
2023/06/29 03:04:12;;;;;;;6.90;6.43;;;;;;;;;;4989237;28;20088;-79
2023/06/29 03:06:38;;;;;;;7.10;6.60;;;;;;;;;;4990303;28;20525;-80
2023/06/29 03:09:04;;;;;;;6.63;6.13;;;;;;;;;;4989298;28;20042;-81
2023/06/29 03:11:30;;;;;;;7.30;5.68;;;;;;;;;;4990648;28;20527;-80
2023/06/29 03:13:57;;;;;;;8.85;6.03;;;;;;;;;;4990303;28;20042;-80
2023/06/29 03:16:23;;;;;;;6.10;5.70;;;;;;;;;;4990785;28;20031;-79
2023/06/29 03:18:49;;;;;;;10.50;6.85;;;;;;;;;;4990623;28;20408;-81
2023/06/29 03:21:16;;;;;;;6.25;5.75;;;;;;;;;;4989468;28;20035;-80
2023/06/29 03:23:42;;;;;;;5.20;4.80;;;;;;;;;;4990044;28;20097;-80
2023/06/29 03:26:08;;;;;;;7.07;5.35;;;;;;;;;;4990602;28;20106;-81
2023/06/29 03:28:34;;;;;;;5.68;5.18;;;;;;;;;;4993110;28;20038;-78
2023/06/29 03:31:00;;;;;;;6.20;5.80;;;;;;;;;;4992530;28;20070;-79
2023/06/29 03:33:26;;;;;;;6.97;5.60;;;;;;;;;;4992661;28;20101;-80
2023/06/29 03:35:52;;;;;;;7.20;6.70;;;;;;;;;;4993550;28;20395;-79
2023/06/29 03:38:18;;;;;;;6.25;5.85;;;;;;;;;;4992260;28;20041;-78
2023/06/29 03:40:44;;;;;;;8.68;7.93;;;;;;;;;;4993370;28;20105;-79
2023/06/29 03:43:10;;;;;;;7.75;7.13;;;;;;;;;;4993517;28;20577;-78
2023/06/29 03:45:36;;;;;;;7.82;7.22;;;;;;;;;;4993325;28;20104;-78
2023/06/29 03:48:02;;;;;;;7.65;6.97;;;;;;;;;;4992092;28;20026;-78
2023/06/29 03:50:29;;;;;;;8.65;7.68;;;;;;;;;;4996560;28;20061;-80
2023/06/29 03:52:55;;;;;;;7.40;6.80;;;;;;;;;;5005171;28;20038;-77
2023/06/29 03:55:21;;;;;;;6.43;5.93;;;;;;;;;;4993291;28;20052;-79
2023/06/29 03:57:46;;;;;;;5.68;5.18;;;;;;;;;;4993026;28;20038;-78
2023/06/29 04:00:12;;;;;;;6.50;6.00;;;;;;;;;;4993193;28;20061;-79
2023/06/29 04:02:39;;;;;;;6.43;5.90;;;;;;;;;;4992970;28;20046;-78
2023/06/29 04:05:06;;;;;;;7.10;6.32;;;;;;;;;;4991924;28;20058;-78
2023/06/29 04:07:32;;;;;;;6.53;5.82;;;;;;;;;;4992989;28;20513;-77
2023/06/29 04:09:58;;;;;;;7.88;7.28;;;;;;;;;;4992662;28;20041;-76
2023/06/29 04:12:24;;;;;;;7.00;6.10;;;;;;;;;;4991619;28;20035;-76
2023/06/29 04:14:50;;;;;;;5.43;5.03;;;;;;;;;;4992537;28;20064;-78
2023/06/29 04:17:16;;;;;;;6.13;5.68;;;;;;;;;;4992950;28;20513;-78
2023/06/29 04:19:43;;;;;;;5.78;5.25;;;;;;;;;;4992542;28;20056;-77
2023/06/29 04:22:09;;;;;;;6.32;5.10;;;;;;;;;;4991862;28;20513;-76
2023/06/29 04:24:35;;;;;;;4.85;4.53;;;;;;;;;;4992596;28;20042;-76
2023/06/29 04:27:01;;;;;;;5.35;4.38;;;;;;;;;;4992773;28;20065;-77
2023/06/29 04:29:27;;;;;;;4.25;3.95;;;;;;;;;;4991347;28;20069;-78
2023/06/29 04:31:54;;;;;;;5.28;4.72;;;;;;;;;;4991263;28;20037;-78
2023/06/29 04:34:21;;;;;;;5.10;4.70;;;;;;;;;;4992330;28;20042;-79
2023/06/29 04:36:47;;;;;;;4.85;4.55;;;;;;;;;;4990917;28;20038;-78
2023/06/29 04:39:13;;;;;;;5.07;4.78;;;;;;;;;;4991107;28;20053;-78
2023/06/29 04:41:42;;;;;;;5.45;5.05;;;;;;;;;;4990821;28;20129;-78
2023/06/29 04:44:09;;;;;;;5.32;4.93;;;;;;;;;;4991083;28;20420;-77
2023/06/29 04:46:38;;;;;;;6.15;4.97;;;;;;;;;;4992375;28;20038;-76
2023/06/29 04:49:06;;;;;;;6.40;5.63;;;;;;;;;;4990501;28;20405;-77
2023/06/29 04:51:35;;;;;;;5.05;4.75;;;;;;;;;;4992159;28;20073;-77
2023/06/29 04:54:02;;;;;;;5.03;4.68;;;;;;;;;;4991964;28;20038;-78
2023/06/29 04:56:28;;;;;;;5.30;4.80;;;;;;;;;;4993419;28;20516;-77
2023/06/29 04:58:54;;;;;;;5.60;5.10;;;;;;;;;;4992279;28;20069;-78
2023/06/29 05:01:20;;;;;;;5.40;4.90;;;;;;;;;;4992246;28;20093;-78
2023/06/29 05:03:48;;;;;;;4.90;4.60;;;;;;;;;;4991697;28;20447;-79
2023/06/29 05:06:14;;;;;;;5.32;4.93;;;;;;;;;;4991920;28;20034;-79
2023/06/29 05:08:40;;;;;;;5.72;5.15;;;;;;;;;;4974568;28;20648;-78
2023/06/29 05:11:06;;;;;;;5.57;5.18;;;;;;;;;;4991728;28;20069;-78
2023/06/29 05:13:35;;;;;;;5.47;5.03;;;;;;;;;;4991858;28;20091;-80
2023/06/29 05:16:02;;;;;;;5.43;5.00;;;;;;;;;;4991604;28;20038;-79
2023/06/29 05:18:28;;;;;;;6.22;5.63;;;;;;;;;;4991631;28;20278;-79
2023/06/29 05:20:54;;;;;;;5.63;5.13;;;;;;;;;;4990573;28;20118;-80
2023/06/29 05:23:20;;;;;;;7.55;5.10;;;;;;;;;;4991885;28;20409;-80
2023/06/29 05:25:46;;;;;;;8.45;6.00;;;;;;;;;;4990728;28;20045;-81
2023/06/29 05:28:13;;;;;;;6.20;5.70;;;;;;;;;;4992461;28;20050;-82
2023/06/29 05:30:39;;;;;;;6.43;5.82;;;;;;;;;;4992254;28;20417;-81
2023/06/29 05:33:05;;;;;;;5.97;5.47;;;;;;;;;;4991752;28;20501;-82
2023/06/29 05:35:33;;;;;;;5.93;5.40;;;;;;;;;;4991181;28;20034;-82
2023/06/29 05:38:00;;;;;;;5.78;5.30;;;;;;;;;;4993469;28;20034;-82
2023/06/29 05:40:26;;;;;;;6.22;5.63;;;;;;;;;;4993332;28;20390;-83
2023/06/29 05:42:52;;;;;;;6.32;5.72;;;;;;;;;;5005235;28;20088;-81
2023/06/29 05:45:18;;;;;;;6.03;5.53;;;;;;;;;;5002942;28;20529;-81
2023/06/29 05:47:44;;;;;;;6.30;5.68;;;;;;;;;;4993814;28;20038;-81
2023/06/29 05:50:10;;;;;;;5.85;5.45;;;;;;;;;;4990172;28;20054;-82
2023/06/29 05:52:37;;;;;;;8.45;6.10;;;;;;;;;;4992368;28;20038;-80
2023/06/29 05:55:03;;;;;;;6.50;5.90;;;;;;;;;;4992261;28;20049;-81
2023/06/29 05:57:31;;;;;;;5.70;5.20;;;;;;;;;;4992644;28;20042;-81
2023/06/29 05:59:57;;;;;;;5.88;5.47;;;;;;;;;;4978641;28;20077;-80
2023/06/29 06:02:23;;;;;;;6.90;6.00;;;;;;;;;;5005329;28;20030;-80
2023/06/29 06:04:49;;;;;;;5.97;5.30;;;;;;;;;;5003724;28;20049;-82
2023/06/29 06:07:36;;;;;;;6.22;5.53;;;;;;;;;;4995421;28;20042;-80
2023/06/29 06:10:03;;;;;;;6.25;5.88;;;;;;;;;;4991661;28;20026;-81
2023/06/29 06:12:30;;;;;;;6.30;5.82;;;;;;;;;;4974857;28;20038;-81
2023/06/29 06:14:56;;;;;;;5.50;4.97;;;;;;;;;;4990268;28;20045;-80
2023/06/29 06:17:23;;;;;;;5.57;5.07;;;;;;;;;;4992050;28;20046;-81
2023/06/29 06:19:49;;;;;;;5.78;5.38;;;;;;;;;;4992525;28;20406;-80
2023/06/29 06:22:15;;;;;;;5.68;5.00;;;;;;;;;;4993115;28;20409;-82
2023/06/29 06:24:41;;;;;;;6.15;5.65;;;;;;;;;;4993798;28;20128;-82
2023/06/29 06:27:07;;;;;;;6.30;5.88;;;;;;;;;;4994119;28;20084;-82
2023/06/29 06:29:34;;;;;;;5.60;5.20;;;;;;;;;;4994299;28;20123;-83
2023/06/29 06:32:00;;;;;;;6.90;5.63;;;;;;;;;;4994070;28;20046;-82
2023/06/29 06:34:30;;;;;;;5.70;5.30;;;;;;;;;;4993763;28;20034;-80
2023/06/29 06:36:57;;;;;;;4.53;4.22;;;;;;;;;;4995396;28;20043;-83
2023/06/29 06:39:23;;;;;;;5.80;5.28;;;;;;;;;;4997325;28;20031;-82
2023/06/29 06:41:49;;;;;;;5.70;4.65;;;;;;;;;;4999005;28;20050;-84
2023/06/29 06:44:15;;;;;;;7.25;4.82;;;;;;;;;;4980584;28;20104;-82
2023/06/29 06:46:41;;;;;;;5.20;4.63;;;;;;;;;;4995556;28;20082;-83
2023/06/29 06:49:07;;;;;;;4.40;4.10;;;;;;;;;;4995580;28;20034;-83
2023/06/29 06:51:33;;;;;;;5.22;4.63;;;;;;;;;;4995106;28;20054;-81
2023/06/29 06:54:00;;;;;;;5.18;4.68;;;;;;;;;;4997665;28;20034;-82
2023/06/29 06:56:26;;;;;;;5.65;4.80;;;;;;;;;;4997758;28;20034;-83
2023/06/29 06:58:52;;;;;;;5.50;5.10;;;;;;;;;;4998997;28;20038;-82
2023/06/29 07:01:20;;;;;;;5.47;5.07;;;;;;;;;;4999454;28;20041;-83
2023/06/29 07:03:46;;;;;;;5.20;4.90;;;;;;;;;;4999509;28;20528;-82
2023/06/29 07:06:12;;;;;;;5.43;5.00;;;;;;;;;;5001834;28;20070;-83
2023/06/29 07:08:38;;;;;;;5.30;4.80;;;;;;;;;;5003968;28;20034;-82
2023/06/29 07:11:04;;;;;;;7.50;4.80;;;;;;;;;;4999681;28;20026;-84
2023/06/29 07:13:31;;;;;;;5.20;4.65;;;;;;;;;;4997634;28;20417;-82
2023/06/29 07:15:57;;;;;;;5.22;4.82;;;;;;;;;;4998506;28;20050;-82
2023/06/29 07:18:22;;;;;;;4.32;4.03;;;;;;;;;;4996514;28;20038;-82
2023/06/29 07:20:49;;;;;;;4.57;4.28;;;;;;;;;;4995510;28;20026;-82
2023/06/29 07:23:15;;;;;;;4.60;4.20;;;;;;;;;;4995905;28;20053;-82
2023/06/29 07:25:41;;;;;;;3.92;3.65;;;;;;;;;;4996253;28;20457;-82
2023/06/29 07:28:08;;;;;;;3.80;3.60;;;;;;;;;;4980258;28;20034;-82
2023/06/29 07:30:34;;;;;;;4.07;3.88;;;;;;;;;;4997534;28;20098;-81
2023/06/29 07:33:01;;;;;;;4.93;4.57;;;;;;;;;;5008098;28;20042;-83
2023/06/29 07:35:26;;;;;;;4.13;3.88;;;;;;;;;;5004303;28;20429;-81
2023/06/29 07:37:53;;;;;;;3.25;3.13;;;;;;;;;;4997354;28;20041;-82
2023/06/29 07:40:19;;;;;;;4.20;3.90;;;;;;;;;;4996428;28;20049;-82
2023/06/29 07:42:45;;;;;;;4.05;3.65;;;;;;;;;;4980317;28;20232;-83
2023/06/29 07:45:13;;;;;;;4.20;3.90;;;;;;;;;;4995639;28;20046;-83
2023/06/29 07:47:40;;;;;;;4.22;3.92;;;;;;;;;;4995479;28;20036;-80
2023/06/29 07:50:06;;;;;;;4.07;3.78;;;;;;;;;;4995100;28;20521;-81
2023/06/29 07:52:32;;;;;;;4.18;3.47;;;;;;;;;;4995646;28;20096;-81
2023/06/29 07:54:58;;;;;;;4.35;3.40;;;;;;;;;;4994790;28;20042;-82
2023/06/29 07:57:24;;;;;;;3.90;3.50;;;;;;;;;;4996325;28;20034;-82
2023/06/29 07:59:50;;;;;;;3.15;2.95;;;;;;;;;;4996367;28;20041;-82
2023/06/29 08:02:16;;;;;;;11.90;3.80;;;;;;;;;;4996530;28;20030;-79
2023/06/29 08:04:42;;;;;;;6.38;3.58;;;;;;;;;;4997029;28;20054;-82
2023/06/29 08:07:08;;;;;;;5.20;3.80;;;;;;;;;;4995183;28;20031;-83
2023/06/29 08:09:34;;;;;;;7.20;3.80;;;;;;;;;;4998062;28;20046;-82
2023/06/29 08:12:00;;;;;;;6.55;3.50;;;;;;;;;;4997333;28;20390;-82
2023/06/29 08:14:26;;;;;;;3.00;2.80;;;;;;;;;;4998438;28;20042;-83
2023/06/29 08:16:52;;;;;;;4.00;3.70;;;;;;;;;;4997428;28;20034;-81
2023/06/29 08:19:18;;;;;;;7.03;3.25;;;;;;;;;;4997739;28;20574;-82
2023/06/29 08:21:47;;;;;;;5.68;4.28;;;;;;;;;;4999134;28;20030;-81
2023/06/29 08:24:14;;;;;;;4.13;3.83;;;;;;;;;;4984195;28;20053;-82
2023/06/29 08:26:40;;;;;;;6.40;3.60;;;;;;;;;;5000632;28;20037;-83
2023/06/29 08:29:06;;;;;;;5.05;3.63;;;;;;;;;;5000270;28;20508;-84
2023/06/29 08:31:32;;;;;;;3.08;2.80;;;;;;;;;;5001992;28;20054;-82
2023/06/29 08:33:58;;;;;;;3.92;3.65;;;;;;;;;;5001726;28;20053;-83
2023/06/29 08:36:25;;;;;;;4.07;3.80;;;;;;;;;;5000158;28;20039;-83
2023/06/29 08:38:51;;;;;;;4.35;3.95;;;;;;;;;;5000839;28;20042;-82
2023/06/29 08:41:17;;;;;;;8.48;3.95;;;;;;;;;;4999642;28;20042;-82
2023/06/29 08:43:43;;;;;;;5.13;3.42;;;;;;;;;;5003526;28;20088;-83
2023/06/29 08:46:09;;;;;;;3.78;3.47;;;;;;;;;;5004230;28;20042;-82
2023/06/29 08:48:35;;;;;;;4.97;4.38;;;;;;;;;;5006457;28;20693;-81
2023/06/29 08:51:06;;;;;;;4.25;3.70;;;;;;;;;;5002802;28;20246;-82
2023/06/29 08:53:32;;;;;;;9.85;4.63;;;;;;;;;;5006131;28;20031;-83
2023/06/29 08:55:59;;;;;;;4.85;4.15;;;;;;;;;;4985143;28;20034;-83
2023/06/29 08:58:24;;;;;;;3.75;3.45;;;;;;;;;;4987177;28;20038;-82
2023/06/29 09:00:51;;;;;;;7.53;4.57;;;;;;;;;;5013400;28;20119;-82
2023/06/29 09:03:17;;;;;;;5.05;3.50;;;;;;;;;;5011682;28;20035;-81
2023/06/29 09:05:45;;;;;;;4.60;3.47;;;;;;;;;;5008237;28;20110;-84
2023/06/29 09:08:11;;;;;;;4.28;3.75;;;;;;;;;;5005598;28;20557;-81
2023/06/29 09:10:39;;;;;;;3.72;3.42;;;;;;;;;;5014582;28;20033;-83
2023/06/29 09:13:05;;;;;;;5.40;3.60;;;;;;;;;;5015276;28;20023;-83
2023/06/29 09:15:31;;;;;;;6.38;3.70;;;;;;;;;;5015895;28;20086;-83
2023/06/29 09:17:58;;;;;;;4.18;3.83;;;;;;;;;;4998509;28;20053;-82
2023/06/29 09:20:25;;;;;;;5.18;4.07;;;;;;;;;;4997116;28;20551;-83
2023/06/29 09:22:51;;;;;;;5.20;4.30;;;;;;;;;;5016461;28;20023;-83
2023/06/29 09:25:17;;;;;;;3.97;3.67;;;;;;;;;;5015981;28;20050;-79
2023/06/29 09:27:44;;;;;;;5.03;3.65;;;;;;;;;;5015238;28;20049;-81
2023/06/29 09:30:20;;;;;;;5.00;4.50;;;;;;;;;;5016177;28;20098;-84
2023/06/29 09:32:46;;;;;;;5.05;4.60;;;;;;;;;;5016899;28;20675;-83
2023/06/29 09:35:12;;;;;;;8.82;5.50;;;;;;;;;;5015654;28;20030;-82
2023/06/29 09:37:40;;;;;;;5.68;4.97;;;;;;;;;;5011787;28;20049;-82
2023/06/29 09:40:12;;;;;;;12.63;6.15;;;;;;;;;;5001176;28;20042;-84
2023/06/29 09:42:38;;;;;;;6.90;6.25;;;;;;;;;;5002394;28;20830;-82
2023/06/29 09:45:07;;;;;;;6.97;6.03;;;;;;;;;;5003779;28;20093;-83
2023/06/29 09:47:34;;;;;;;7.15;6.22;;;;;;;;;;5001261;28;20043;-83
2023/06/29 09:50:01;;;;;;;7.63;6.80;;;;;;;;;;4998147;28;20085;-83
2023/06/29 09:52:27;;;;;;;9.02;3.80;;;;;;;;;;5002084;28;20636;-84
2023/06/29 09:54:57;;;;;;;7.07;6.25;;;;;;;;;;5007281;28;20050;-84
2023/06/29 09:57:23;;;;;;;7.97;6.63;;;;;;;;;;5006462;28;20125;-83
2023/06/29 09:59:49;;;;;;;8.07;5.53;;;;;;;;;;5004688;28;20081;-84
2023/06/29 10:02:17;;;;;;;6.72;5.65;;;;;;;;;;5003572;28;20042;-84
2023/06/29 10:04:45;;;;;;;6.20;5.60;;;;;;;;;;5002706;28;20054;-84
2023/06/29 10:07:19;;;;;;;8.05;6.90;;;;;;;;;;5000616;28;20045;-83
2023/06/29 10:09:49;;;;;;;6.20;5.70;;;;;;;;;;5002210;28;20045;-83
2023/06/29 10:12:15;;;;;;;7.63;5.35;;;;;;;;;;4998451;28;20051;-83
2023/06/29 10:14:42;;;;;;;6.72;5.22;;;;;;;;;;5001847;28;20042;-83
2023/06/29 10:17:08;;;;;;;6.78;5.75;;;;;;;;;;5001957;28;20129;-84
2023/06/29 10:19:36;;;;;;;6.18;5.50;;;;;;;;;;5002465;28;20038;-83
2023/06/29 10:22:11;;;;;;;5.53;5.03;;;;;;;;;;5002980;28;20114;-83
2023/06/29 10:24:43;;;;;;;4.70;4.30;;;;;;;;;;4972336;28;20050;-83
2023/06/29 10:27:09;;;;;;;3.50;3.20;;;;;;;;;;5005319;28;20129;-83
2023/06/29 10:29:45;;;;;;;10.27;4.20;;;;;;;;;;5006223;28;20030;-83
2023/06/29 10:32:33;;;;;;;6.18;4.20;;;;;;;;;;4999994;28;20034;-83
2023/06/29 10:35:03;;;;;;;6.78;3.58;;;;;;;;;;5003686;28;20046;-81
2023/06/29 10:37:33;;;;;;;3.47;3.17;;;;;;;;;;5007251;28;20054;-84
2023/06/29 10:39:59;;;;;;;4.05;2.75;;;;;;;;;;5010100;28;20477;-82
2023/06/29 10:42:25;;;;;;;7.30;3.33;;;;;;;;;;5012271;28;20037;-83
2023/06/29 10:44:51;;;;;;;3.13;2.80;;;;;;;;;;5015505;28;20026;-83
2023/06/29 10:47:27;;;;;;;2.65;2.30;;;;;;;;;;5019093;28;20026;-81
2023/06/29 10:50:09;;;;;;;2.58;2.38;;;;;;;;;;5020547;28;20030;-83
2023/06/29 10:52:36;;;;;;;3.75;2.53;;;;;;;;;;5020785;28;20042;-83
2023/06/29 10:55:14;;;;;;;2.20;2.10;;;;;;;;;;5020915;28;20048;-82
2023/06/29 10:57:48;;;;;;;4.65;2.67;;;;;;;;;;5015068;28;20543;-82
2023/06/29 11:00:14;;;;;;;5.88;2.00;;;;;;;;;;5015742;28;20031;-83
2023/06/29 11:02:40;;;;;;;5.38;2.40;;;;;;;;;;5017335;28;20038;-82
2023/06/29 11:05:06;;;;;;;3.28;2.70;;;;;;;;;;5002507;28;20615;-83
2023/06/29 11:07:33;;;;;;;7.47;2.90;;;;;;;;;;5018103;28;20034;-83
2023/06/29 11:09:59;;;;;;;3.30;2.83;;;;;;;;;;5016000;28;20029;-81
2023/06/29 11:12:26;;;;;;;5.43;2.83;;;;;;;;;;5018565;28;20034;-83
2023/06/29 11:14:51;;;;;;;3.90;2.20;;;;;;;;;;5013257;28;20069;-84
2023/06/29 11:17:17;;;;;;;3.05;2.85;;;;;;;;;;5007005;28;20030;-84
2023/06/29 11:19:45;;;;;;;4.22;2.85;;;;;;;;;;5002138;28;20064;-83
2023/06/29 11:22:11;;;;;;;5.30;3.50;;;;;;;;;;5002371;28;20030;-83
2023/06/29 11:24:37;;;;;;;6.72;3.47;;;;;;;;;;5001219;28;20046;-81
2023/06/29 11:27:03;;;;;;;5.15;3.47;;;;;;;;;;4995957;28;20133;-80
2023/06/29 11:29:29;;;;;;;4.63;3.20;;;;;;;;;;4993800;28;20037;-83
2023/06/29 11:31:55;;;;;;;6.38;2.35;;;;;;;;;;4984640;28;20038;-79
2023/06/29 11:34:24;;;;;;;5.63;2.60;;;;;;;;;;4998491;28;20041;-84
2023/06/29 11:36:50;;;;;;;4.10;2.20;;;;;;;;;;5010005;28;20103;-84
2023/06/29 11:39:17;;;;;;;6.80;2.40;;;;;;;;;;5014476;28;20038;-85
2023/06/29 11:41:45;;;;;;;6.63;2.05;;;;;;;;;;5015813;28;20037;-84
2023/06/29 11:44:11;;;;;;;3.30;2.28;;;;;;;;;;5004675;28;20042;-85
2023/06/29 11:46:38;;;;;;;6.60;2.53;;;;;;;;;;5007679;28;20102;-84
2023/06/29 11:49:04;;;;;;;7.15;2.33;;;;;;;;;;4979075;28;20027;-83
2023/06/29 11:51:30;;;;;;;5.10;2.42;;;;;;;;;;4994675;28;20064;-82
2023/06/29 11:53:56;;;;;;;2.83;2.28;;;;;;;;;;4997151;28;20417;-80
2023/06/29 11:56:23;;;;;;;4.70;2.50;;;;;;;;;;4998901;28;20030;-83
2023/06/29 11:58:49;;;;;;;5.15;3.25;;;;;;;;;;4997907;28;20042;-83
2023/06/29 12:01:15;;;;;;;3.72;2.92;;;;;;;;;;5004006;28;20398;-82
2023/06/29 12:03:42;;;;;;;6.38;2.67;;;;;;;;;;5002550;28;20039;-83
2023/06/29 12:06:08;;;;;;;7.15;6.20;;;;;;;;;;4996186;28;20664;-82
2023/06/29 12:08:41;;;;;;;9.02;7.65;;;;;;;;;;4993350;28;20405;-79
2023/06/29 12:11:16;;;;;;;4.25;2.88;;;;;;;;;;4993341;28;20563;-81
2023/06/29 12:13:43;;;;;;;5.57;3.78;;;;;;;;;;4993842;28;20066;-80
2023/06/29 12:16:09;;;;;;;4.97;3.72;;;;;;;;;;4991842;28;20045;-82
2023/06/29 12:18:35;;;;;;;3.78;3.33;;;;;;;;;;4992423;28;20088;-81
2023/06/29 12:21:01;;;;;;;4.25;2.80;;;;;;;;;;4994169;28;20026;-82
2023/06/29 12:23:27;;;;;;;2.15;1.95;;;;;;;;;;4995560;28;20124;-82
2023/06/29 12:25:53;;;;;;;2.72;2.53;;;;;;;;;;4993198;28;20052;-79
2023/06/29 12:28:19;;;;;;;2.20;2.10;;;;;;;;;;4991584;28;20050;-81
2023/06/29 12:30:45;;;;;;;2.10;1.90;;;;;;;;;;4994521;28;20042;-81
2023/06/29 12:33:11;;;;;;;2.72;2.53;;;;;;;;;;4993386;28;20124;-83
2023/06/29 12:35:37;;;;;;;4.05;3.40;;;;;;;;;;4977775;28;20035;-82
2023/06/29 12:38:03;;;;;;;3.85;3.55;;;;;;;;;;4994169;28;20033;-83
2023/06/29 12:40:30;;;;;;;6.88;3.78;;;;;;;;;;4993835;28;20425;-82
2023/06/29 12:42:56;;;;;;;4.22;3.22;;;;;;;;;;4993476;28;20394;-81
2023/06/29 12:45:22;;;;;;;3.38;2.80;;;;;;;;;;4993530;28;20513;-82
2023/06/29 12:47:48;;;;;;;3.75;3.42;;;;;;;;;;4993680;28;20061;-80
2023/06/29 12:50:14;;;;;;;3.92;3.63;;;;;;;;;;4994507;28;20104;-82
2023/06/29 12:52:40;;;;;;;6.15;3.65;;;;;;;;;;4993276;28;20035;-81
2023/06/29 12:55:06;;;;;;;8.38;6.13;;;;;;;;;;4994142;28;20034;-82
2023/06/29 12:57:32;;;;;;;4.18;3.45;;;;;;;;;;4993729;28;20509;-82
2023/06/29 12:59:59;;;;;;;5.38;3.97;;;;;;;;;;4995465;28;20419;-80
2023/06/29 13:02:25;;;;;;;6.45;3.97;;;;;;;;;;5009941;28;20575;-80
2023/06/29 13:04:51;;;;;;;4.78;4.30;;;;;;;;;;4976599;28;20046;-82
2023/06/29 13:07:17;;;;;;;5.32;4.80;;;;;;;;;;4992352;28;20045;-80
2023/06/29 13:09:44;;;;;;;5.60;5.10;;;;;;;;;;4992417;28;20112;-80
2023/06/29 13:12:14;;;;;;;5.93;5.53;;;;;;;;;;4991237;28;20126;-81
2023/06/29 13:14:41;;;;;;;5.95;5.30;;;;;;;;;;4990958;28;20027;-80
2023/06/29 13:17:08;;;;;;;7.53;5.97;;;;;;;;;;4992184;28;20050;-80
2023/06/29 13:19:34;;;;;;;5.40;5.00;;;;;;;;;;4991566;28;20030;-80
2023/06/29 13:21:59;;;;;;;5.68;5.07;;;;;;;;;;4991799;28;20038;-78
2023/06/29 13:24:26;;;;;;;7.25;5.43;;;;;;;;;;4990095;28;20042;-79
2023/06/29 13:26:52;;;;;;;6.35;5.75;;;;;;;;;;4991620;28;20041;-78
2023/06/29 13:29:21;;;;;;;5.53;5.13;;;;;;;;;;4991969;28;20453;-78
2023/06/29 13:31:47;;;;;;;5.65;4.93;;;;;;;;;;4991743;28;20060;-79
2023/06/29 13:34:13;;;;;;;4.05;3.65;;;;;;;;;;4991899;28;20042;-78
2023/06/29 13:36:39;;;;;;;3.97;3.70;;;;;;;;;;4991882;28;20247;-77
2023/06/29 13:39:05;;;;;;;4.40;4.10;;;;;;;;;;4991366;28;20041;-77
2023/06/29 13:41:35;;;;;;;4.50;3.40;;;;;;;;;;4989842;28;20037;-77
2023/06/29 13:44:02;;;;;;;3.53;3.25;;;;;;;;;;4991295;28;20505;-77
2023/06/29 13:46:28;;;;;;;4.40;3.38;;;;;;;;;;4990925;28;20038;-77
2023/06/29 13:48:54;;;;;;;3.38;3.00;;;;;;;;;;4991312;28;20026;-77
2023/06/29 13:51:20;;;;;;;3.90;2.35;;;;;;;;;;4989581;28;20062;-76
2023/06/29 13:53:46;;;;;;;2.10;2.00;;;;;;;;;;4991125;28;20117;-77
2023/06/29 13:56:12;;;;;;;3.03;2.80;;;;;;;;;;4991249;28;20125;-77
2023/06/29 13:58:38;;;;;;;3.72;3.42;;;;;;;;;;4991012;28;20037;-76
2023/06/29 14:01:05;;;;;;;2.83;2.63;;;;;;;;;;4989588;28;20065;-77
2023/06/29 14:03:31;;;;;;;3.50;3.22;;;;;;;;;;4989693;28;20537;-77
2023/06/29 14:05:56;;;;;;;3.60;3.40;;;;;;;;;;4990880;28;20161;-76
2023/06/29 14:08:22;;;;;;;7.47;5.45;;;;;;;;;;4990836;28;20409;-78
2023/06/29 14:10:49;;;;;;;7.00;3.60;;;;;;;;;;4990543;28;20405;-76
2023/06/29 14:13:15;;;;;;;4.10;3.80;;;;;;;;;;4989623;28;20092;-77
2023/06/29 14:15:41;;;;;;;3.88;3.30;;;;;;;;;;4990466;28;20100;-76
2023/06/29 14:18:07;;;;;;;3.40;3.20;;;;;;;;;;4991022;28;20034;-76
2023/06/29 14:20:33;;;;;;;5.78;3.40;;;;;;;;;;4990579;28;20453;-76
2023/06/29 14:22:59;;;;;;;3.17;2.92;;;;;;;;;;4990737;28;20038;-76
2023/06/29 14:25:25;;;;;;;8.93;3.40;;;;;;;;;;4990342;28;20143;-76
2023/06/29 14:27:51;;;;;;;3.55;3.17;;;;;;;;;;4990777;28;20093;-77
2023/06/29 14:30:17;;;;;;;3.25;2.95;;;;;;;;;;4990641;28;20042;-76
2023/06/29 14:32:43;;;;;;;3.35;3.10;;;;;;;;;;4989268;28;20042;-77
2023/06/29 14:35:09;;;;;;;3.30;3.00;;;;;;;;;;4990713;28;20034;-76